Aérodrome :
LOGIN :

S'inscrire | Disclaimer

   EN    FR    IT 

 










Légende :    VFR   VFR Marginal   IFR   IFR Intensif   IFR Très Intensif
Visi : 
Plafond : 
>= 8 km
>= 3000ft
5 à 8 km
1000 à 3000 ft
1500m à 5 km
500 à 1000 ft
800 à 1500m
200 à 500 ft
< 800m
< 200 ft
Symboles :   Orages  Brouillard  Fortes neiges  Fortes précipitations  Vent > 20 kt
SIGMETs :   Divers  Orages  Givrage  Turbulence  Onde Orograph.  Cendres Volcan.







- Altitude de l'aérodrome : 375 ft
- Code IATA : MST


EHBK - Maastricht Aachen

DERNIER METAR :
  • 251925Z AUTO 25009KT 210V320 9999 NSC 12/03 Q1013 NOSIG

METARs EXPIRÉS :
  • 251825Z AUTO 25008KT 200V310 9999 NSC 13/03 Q1012 NOSIG
  • 251755Z AUTO 27005KT 220V320 9999 FEW048 13/04 Q1012 NOSIG
  • 251725Z AUTO 25007KT 200V300 9999 NSC 13/04 Q1012 NOSIG
  • 251655Z AUTO 28006KT 250V330 9999 NSC 14/04 Q1012 NOSIG

TAF TAF EHBK
Valide du 25 à 18h jusqu'au 27 à 00h UTC


251655Z 2518/2624 25011KT 9999 BKN020
PROB30
TEMPO 2518/2519 27015G25KT 6000 SHRA FEW020CB BKN025
PROB30
TEMPO 2600/2607 6000 SHRA BKN012 SCT030CB
BECMG 2605/2608 25015G25KT
PROB30
TEMPO 2612/2615 6000 SHRA SCT030CB
BECMG 2616/2619 23007KT
Pas de NOTAMs connus pour ce terrain.



MET'MAP, la Météo Aéronautique d'un coup d'oeil ! - Copyright ORBIFLY Décembre 2007 - Disclaimer

ORBIFLY MET'MAP TEAM :

Programmation & Développement : Alexandra Zaïnal
Conception & Développement : Baudouin d'Aumeries
Co-Programmation & Développement : Marc-Olivier Méhu
Soutien technique & logistique : Manuel Goepfert

Contact : metmap@orbifly.com




SOURCES & CREDITS :

   NOAA